Time,TemperatureF,DewpointF,PressureIn,WindDirection,WindDirectionDegrees,WindSpeedMPH,WindSpeedGustMPH,Humidity,HourlyPrecipIn,Conditions,Clouds,dailyrainin,SoftwareType,DateUTC
2013-11-12 00:02:00,50.0,33.5,30.04,South,180,1.6,3.1,53,0.00,,,0.00,pywws,2013-11-12 05:02:00,
2013-11-12 00:07:00,50.0,33.5,30.04,NW,315,3.8,6.0,53,0.00,,,0.00,pywws,2013-11-12 05:07:00,
2013-11-12 00:12:00,50.0,33.5,30.04,South,180,1.6,2.2,53,0.00,,,0.00,pywws,2013-11-12 05:12:00,
2013-11-12 00:17:00,50.0,33.5,30.03,NW,315,2.2,3.8,53,0.00,,,0.00,pywws,2013-11-12 05:17:00,
2013-11-12 00:22:00,50.0,33.5,30.03,SW,225,2.2,3.8,53,0.00,,,0.00,pywws,2013-11-12 05:22:00,
2013-11-12 00:27:00,50.0,33.5,30.04,SW,225,2.2,3.8,53,0.00,,,0.00,pywws,2013-11-12 05:27:00,
2013-11-12 00:32:00,50.0,33.5,30.04,South,180,2.2,3.8,53,0.00,,,0.00,pywws,2013-11-12 05:32:00,
2013-11-12 00:37:00,50.0,33.5,30.03,WNW,292,1.6,2.2,53,0.00,,,0.00,pywws,2013-11-12 05:37:00,
2013-11-12 00:42:00,49.8,34.3,30.04,NW,315,2.2,4.5,55,0.00,,,0.00,pywws,2013-11-12 05:42:00,
2013-11-12 00:47:00,49.8,33.8,30.03,South,180,0.7,2.2,54,0.00,,,0.00,pywws,2013-11-12 05:47:00,
2013-11-12 00:52:00,49.8,33.8,30.03,West,270,3.1,3.8,54,0.00,,,0.00,pywws,2013-11-12 05:52:00,
2013-11-12 00:57:00,49.6,34.1,30.03,SW,225,0.7,1.6,55,0.00,,,0.00,pywws,2013-11-12 05:57:00,
2013-11-12 01:02:00,49.6,34.1,30.03,SW,225,1.6,3.8,55,0.00,,,0.00,pywws,2013-11-12 06:02:00,
2013-11-12 01:07:00,49.6,34.1,30.03,SW,225,1.6,3.8,55,0.00,,,0.00,pywws,2013-11-12 06:07:00,
2013-11-12 01:12:00,49.6,34.1,30.03,SSW,202,1.6,3.1,55,0.00,,,0.00,pywws,2013-11-12 06:12:00,
2013-11-12 01:17:00,49.6,34.1,30.03,West,270,1.6,3.1,55,0.00,,,0.00,pywws,2013-11-12 06:17:00,
2013-11-12 01:22:00,49.6,34.1,30.03,WSW,248,0.7,2.2,55,0.00,,,0.00,pywws,2013-11-12 06:22:00,
2013-11-12 01:27:00,49.6,34.1,30.02,South,180,1.6,2.2,55,0.00,,,0.00,pywws,2013-11-12 06:27:00,
2013-11-12 01:32:00,49.5,34.0,30.02,NW,315,3.8,5.4,55,0.00,,,0.00,pywws,2013-11-12 06:32:00,
2013-11-12 01:37:00,49.5,34.0,30.02,WSW,248,1.6,2.2,55,0.00,,,0.00,pywws,2013-11-12 06:37:00,
2013-11-12 01:42:00,49.5,34.0,30.03,NW,315,3.8,5.4,55,0.00,,,0.00,pywws,2013-11-12 06:42:00,
2013-11-12 01:47:00,49.5,34.0,30.03,WSW,248,3.1,4.5,55,0.00,,,0.00,pywws,2013-11-12 06:47:00,
2013-11-12 01:52:00,49.5,34.0,30.02,West,270,1.6,2.2,55,0.00,,,0.00,pywws,2013-11-12 06:52:00,
2013-11-12 01:57:00,49.3,33.8,30.02,SW,225,0.7,2.2,55,0.00,,,0.00,pywws,2013-11-12 06:57:00,
2013-11-12 02:02:00,49.3,34.3,30.02,SW,225,0.7,2.2,56,0.00,,,0.00,pywws,2013-11-12 07:02:00,
2013-11-12 02:07:00,49.3,34.3,30.03,West,270,3.8,5.4,56,0.00,,,0.00,pywws,2013-11-12 07:07:00,
2013-11-12 02:12:00,49.3,34.3,30.02,SW,225,2.2,4.5,56,0.00,,,0.00,pywws,2013-11-12 07:12:00,
2013-11-12 02:17:00,49.3,34.3,30.02,SW,225,1.6,2.2,56,0.00,,,0.00,pywws,2013-11-12 07:17:00,
2013-11-12 02:22:00,49.1,34.1,30.02,SSW,202,2.2,3.1,56,0.00,,,0.00,pywws,2013-11-12 07:22:00,
2013-11-12 02:27:00,49.1,34.1,30.02,West,270,0.7,1.6,56,0.00,,,0.00,pywws,2013-11-12 07:27:00,
2013-11-12 02:32:00,49.1,34.1,30.02,SW,225,2.2,3.8,56,0.00,,,0.00,pywws,2013-11-12 07:32:00,
2013-11-12 02:37:00,49.1,34.1,30.02,SW,225,3.8,6.0,56,0.00,,,0.00,pywws,2013-11-12 07:37:00,
2013-11-12 02:42:00,49.1,34.1,30.02,South,180,2.2,4.5,56,0.00,,,0.00,pywws,2013-11-12 07:42:00,
2013-11-12 02:47:00,49.1,34.1,30.01,SW,225,3.1,4.5,56,0.00,,,0.00,pywws,2013-11-12 07:47:00,
2013-11-12 02:52:00,49.1,34.5,30.02,SW,225,1.6,3.1,57,0.00,,,0.00,pywws,2013-11-12 07:52:00,
2013-11-12 02:57:00,48.9,34.4,30.02,SW,225,3.1,4.5,57,0.00,,,0.00,pywws,2013-11-12 07:57:00,
2013-11-12 03:02:00,48.9,34.4,30.01,SW,225,1.6,2.2,57,0.00,,,0.00,pywws,2013-11-12 08:02:00,
2013-11-12 03:07:00,48.9,34.4,30.02,SW,225,1.6,2.2,57,0.00,,,0.00,pywws,2013-11-12 08:07:00,
2013-11-12 03:12:00,48.9,34.4,30.02,West,270,2.2,3.1,57,0.00,,,0.00,pywws,2013-11-12 08:12:00,
2013-11-12 03:17:00,48.9,34.4,30.01,NW,315,5.4,8.3,57,0.00,,,0.00,pywws,2013-11-12 08:17:00,
2013-11-12 03:22:00,48.9,34.4,30.02,West,270,7.6,9.8,57,0.00,,,0.00,pywws,2013-11-12 08:22:00,
2013-11-12 03:27:00,49.1,34.5,30.02,NW,315,9.2,14.5,57,0.00,,,0.00,pywws,2013-11-12 08:27:00,
2013-11-12 03:32:00,49.1,34.5,30.02,NW,315,3.8,7.6,57,0.00,,,0.00,pywws,2013-11-12 08:32:00,
2013-11-12 03:37:00,49.1,35.0,30.02,East,90,1.6,3.1,58,0.00,,,0.00,pywws,2013-11-12 08:37:00,
2013-11-12 03:42:00,49.1,34.5,30.02,North,0,6.9,10.7,57,0.00,,,0.00,pywws,2013-11-12 08:42:00,
2013-11-12 03:47:00,48.9,34.4,30.02,NW,315,4.5,7.6,57,0.00,,,0.00,pywws,2013-11-12 08:47:00,
2013-11-12 03:52:00,48.9,34.4,30.02,NW,315,7.6,12.1,57,0.00,,,0.00,pywws,2013-11-12 08:52:00,
2013-11-12 03:57:00,48.7,34.2,30.02,West,270,4.5,6.0,57,0.00,,,0.00,pywws,2013-11-12 08:57:00,
2013-11-12 04:02:00,48.6,34.0,30.03,NW,315,4.5,9.2,57,0.00,,,0.00,pywws,2013-11-12 09:02:00,
2013-11-12 04:07:00,48.6,34.5,30.03,NW,315,7.6,9.8,58,0.00,,,0.00,pywws,2013-11-12 09:07:00,
2013-11-12 04:12:00,48.4,34.3,30.03,North,0,3.8,5.4,58,0.00,,,0.00,pywws,2013-11-12 09:12:00,
2013-11-12 04:17:00,48.4,34.3,30.04,WNW,292,3.8,5.4,58,0.00,,,0.00,pywws,2013-11-12 09:17:00,
2013-11-12 04:22:00,48.2,34.1,30.04,NNW,338,3.8,7.6,58,0.00,,,0.00,pywws,2013-11-12 09:22:00,
2013-11-12 04:27:00,48.0,34.8,30.05,WNW,292,6.9,12.1,60,0.00,,,0.00,pywws,2013-11-12 09:27:00,
2013-11-12 04:32:00,47.8,34.6,30.05,NW,315,6.9,11.4,60,0.00,,,0.00,pywws,2013-11-12 09:32:00,
2013-11-12 04:37:00,47.3,34.9,30.06,NW,315,12.1,16.8,62,0.00,,,0.00,pywws,2013-11-12 09:37:00,
2013-11-12 04:42:00,46.8,34.8,30.06,NW,315,12.1,15.9,63,0.00,,,0.00,pywws,2013-11-12 09:42:00,
2013-11-12 04:47:00,46.8,34.8,30.07,NW,315,12.1,15.9,63,0.00,,,0.00,pywws,2013-11-12 09:47:00,
2013-11-12 05:12:00,41.0,32.3,30.09,NW,315,11.4,21.2,71,0.00,,,0.00,pywws,2013-11-12 10:12:00,
2013-11-12 05:17:00,41.0,32.3,30.10,WNW,292,14.5,22.1,71,0.00,,,0.00,pywws,2013-11-12 10:17:00,
2013-11-12 05:22:00,41.0,32.3,30.10,WNW,292,14.5,22.1,71,0.00,,,0.00,pywws,2013-11-12 10:22:00,
2013-11-12 05:37:00,39.6,32.0,30.11,North,0,9.2,12.1,74,0.00,,,0.00,pywws,2013-11-12 10:37:00,
2013-11-12 05:42:00,39.2,32.0,30.11,North,0,4.5,8.3,75,0.00,,,0.00,pywws,2013-11-12 10:42:00,
2013-11-12 05:47:00,38.7,32.1,30.11,North,0,6.0,7.6,77,0.00,,,0.00,pywws,2013-11-12 10:47:00,
2013-11-12 05:52:00,38.3,31.7,30.11,NW,315,6.0,9.2,77,0.00,,,0.00,pywws,2013-11-12 10:52:00,
2013-11-12 05:57:00,37.9,31.7,30.11,NW,315,5.4,6.9,78,0.01,,,0.01,pywws,2013-11-12 10:57:00,
2013-11-12 06:02:00,37.8,31.5,30.11,North,0,6.9,11.4,78,0.01,,,0.01,pywws,2013-11-12 11:02:00,
2013-11-12 06:07:00,37.8,31.8,30.12,NW,315,3.1,3.8,79,0.01,,,0.01,pywws,2013-11-12 11:07:00,
2013-11-12 06:12:00,37.6,31.7,30.13,WNW,292,5.4,9.2,79,0.01,,,0.01,pywws,2013-11-12 11:12:00,
2013-11-12 06:17:00,37.4,31.8,30.13,North,0,1.6,3.1,80,0.01,,,0.01,pywws,2013-11-12 11:17:00,
2013-11-12 06:22:00,37.4,31.8,30.14,NW,315,7.6,9.8,80,0.02,,,0.02,pywws,2013-11-12 11:22:00,
2013-11-12 06:27:00,37.0,30.5,30.14,North,0,7.6,14.5,77,0.02,,,0.02,pywws,2013-11-12 11:27:00,
2013-11-12 06:32:00,36.7,30.2,30.15,North,0,3.8,8.3,77,0.02,,,0.02,pywws,2013-11-12 11:32:00,
2013-11-12 06:37:00,36.1,29.6,30.15,North,0,6.0,8.3,77,0.02,,,0.02,pywws,2013-11-12 11:37:00,
2013-11-12 06:42:00,35.8,29.3,30.15,NW,315,8.3,11.4,77,0.02,,,0.02,pywws,2013-11-12 11:42:00,
2013-11-12 06:47:00,35.4,29.3,30.15,NNW,338,9.2,15.2,78,0.04,,,0.04,pywws,2013-11-12 11:47:00,
2013-11-12 06:52:00,35.1,28.6,30.15,North,0,3.8,5.4,77,0.04,,,0.04,pywws,2013-11-12 11:52:00,
2013-11-12 06:57:00,35.1,28.6,30.16,North,0,7.6,9.8,77,0.02,,,0.04,pywws,2013-11-12 11:57:00,
2013-11-12 07:02:00,35.1,28.6,30.16,NNW,338,4.5,6.9,77,0.02,,,0.04,pywws,2013-11-12 12:02:00,
2013-11-12 07:07:00,35.1,28.6,30.16,NW,315,6.0,8.3,77,0.02,,,0.04,pywws,2013-11-12 12:07:00,
2013-11-12 07:12:00,35.2,28.8,30.17,NW,315,6.9,10.7,77,0.02,,,0.04,pywws,2013-11-12 12:12:00,
2013-11-12 07:17:00,35.2,28.1,30.17,North,0,9.8,16.8,75,0.02,,,0.04,pywws,2013-11-12 12:17:00,
2013-11-12 07:22:00,35.2,27.8,30.17,NW,315,6.9,11.4,74,0.01,,,0.04,pywws,2013-11-12 12:22:00,
2013-11-12 07:27:00,35.2,27.5,30.17,North,0,7.6,13.0,73,0.01,,,0.04,pywws,2013-11-12 12:27:00,
2013-11-12 07:32:00,35.2,27.1,30.18,NW,315,5.4,8.3,72,0.01,,,0.04,pywws,2013-11-12 12:32:00,
2013-11-12 07:37:00,35.2,26.8,30.18,North,-999,6.9,9.2,71,0.01,,,0.04,pywws,2013-11-12 12:37:00,
2013-11-12 07:42:00,35.2,26.1,30.18,North,-999,11.4,15.9,69,0.01,,,0.04,pywws,2013-11-12 12:42:00,
2013-11-12 07:47:00,35.1,25.9,30.19,North,0,7.6,13.0,69,0.00,,,0.04,pywws,2013-11-12 12:47:00,
2013-11-12 07:52:00,34.9,25.8,30.19,WNW,292,10.7,14.5,69,0.00,,,0.04,pywws,2013-11-12 12:52:00,
2013-11-12 07:57:00,34.7,25.6,30.20,North,0,14.5,19.7,69,0.00,,,0.04,pywws,2013-11-12 12:57:00,
2013-11-12 08:02:00,34.7,25.2,30.20,NW,315,9.8,13.6,68,0.00,,,0.04,pywws,2013-11-12 13:02:00,
2013-11-12 08:07:00,34.5,25.4,30.20,North,0,4.5,9.8,69,0.00,,,0.04,pywws,2013-11-12 13:07:00,
2013-11-12 08:12:00,34.3,25.2,30.20,North,0,9.2,13.6,69,0.00,,,0.04,pywws,2013-11-12 13:12:00,
2013-11-12 08:17:00,34.3,25.2,30.20,NW,315,8.3,10.7,69,0.00,,,0.04,pywws,2013-11-12 13:17:00,
2013-11-12 08:22:00,34.3,24.9,30.21,NW,315,8.3,11.4,68,0.00,,,0.04,pywws,2013-11-12 13:22:00,
2013-11-12 08:27:00,34.3,25.2,30.20,NW,315,2.2,3.8,69,0.00,,,0.04,pywws,2013-11-12 13:27:00,
2013-11-12 08:32:00,34.3,25.2,30.20,North,0,6.0,9.8,69,0.00,,,0.04,pywws,2013-11-12 13:32:00,
2013-11-12 08:37:00,34.5,25.4,30.20,NW,315,11.4,15.9,69,0.00,,,0.04,pywws,2013-11-12 13:37:00,
2013-11-12 08:42:00,34.5,25.1,30.20,North,0,6.9,9.8,68,0.00,,,0.04,pywws,2013-11-12 13:42:00,
2013-11-12 08:47:00,34.5,25.1,30.21,NE,45,5.4,9.2,68,0.00,,,0.04,pywws,2013-11-12 13:47:00,
2013-11-12 08:52:00,34.5,24.7,30.20,NW,315,8.3,14.5,67,0.00,,,0.04,pywws,2013-11-12 13:52:00,
2013-11-12 08:57:00,34.5,24.7,30.20,WNW,292,6.0,7.6,67,0.00,,,0.04,pywws,2013-11-12 13:57:00,
2013-11-12 09:02:00,34.7,24.9,30.20,NW,315,3.8,6.0,67,0.00,,,0.04,pywws,2013-11-12 14:02:00,
2013-11-12 09:07:00,34.9,25.4,30.20,North,0,3.1,4.5,68,0.00,,,0.04,pywws,2013-11-12 14:07:00,
2013-11-12 09:12:00,34.9,25.4,30.20,NW,315,3.1,4.5,68,0.00,,,0.04,pywws,2013-11-12 14:12:00,
2013-11-12 09:17:00,35.1,25.6,30.21,NW,315,1.6,3.1,68,0.00,,,0.04,pywws,2013-11-12 14:17:00,
2013-11-12 09:22:00,35.2,25.8,30.21,North,0,6.9,7.6,68,0.00,,,0.04,pywws,2013-11-12 14:22:00,
2013-11-12 09:27:00,35.2,25.4,30.20,NNW,338,9.2,12.1,67,0.00,,,0.04,pywws,2013-11-12 14:27:00,
2013-11-12 09:32:00,35.4,25.6,30.21,West,270,6.9,9.2,67,0.00,,,0.04,pywws,2013-11-12 14:32:00,
2013-11-12 09:37:00,35.6,25.4,30.21,East,90,3.8,6.0,66,0.00,,,0.04,pywws,2013-11-12 14:37:00,
2013-11-12 09:42:00,35.8,25.2,30.21,North,0,3.8,6.9,65,0.00,,,0.04,pywws,2013-11-12 14:42:00,
2013-11-12 09:47:00,35.8,25.2,30.21,NW,315,9.2,10.7,65,0.00,,,0.04,pywws,2013-11-12 14:47:00,
2013-11-12 09:52:00,36.0,25.0,30.21,West,270,4.5,8.3,64,0.00,,,0.04,pywws,2013-11-12 14:52:00,
2013-11-12 09:57:00,36.1,24.8,30.21,North,0,7.6,12.1,63,0.00,,,0.04,pywws,2013-11-12 14:57:00,
2013-11-12 10:02:00,36.1,24.8,30.22,NW,315,5.4,8.3,63,0.00,,,0.04,pywws,2013-11-12 15:02:00,
2013-11-12 10:07:00,36.1,24.8,30.22,North,0,4.5,7.6,63,0.00,,,0.04,pywws,2013-11-12 15:07:00,
2013-11-12 10:12:00,36.3,24.9,30.22,NW,315,6.9,12.1,63,0.00,,,0.04,pywws,2013-11-12 15:12:00,
2013-11-12 10:17:00,36.5,25.1,30.22,North,0,9.2,13.6,63,0.00,,,0.04,pywws,2013-11-12 15:17:00,
2013-11-12 10:22:00,36.5,24.7,30.22,North,0,5.4,7.6,62,0.00,,,0.04,pywws,2013-11-12 15:22:00,
2013-11-12 10:27:00,36.5,24.7,30.21,NW,315,9.8,13.0,62,0.00,,,0.04,pywws,2013-11-12 15:27:00,
2013-11-12 10:32:00,36.5,24.3,30.22,NW,315,7.6,9.8,61,0.00,,,0.04,pywws,2013-11-12 15:32:00,
2013-11-12 10:37:00,36.5,24.3,30.22,West,270,9.8,15.9,61,0.00,,,0.04,pywws,2013-11-12 15:37:00,
2013-11-12 10:42:00,36.7,23.3,30.22,NW,315,7.6,10.7,58,0.00,,,0.04,pywws,2013-11-12 15:42:00,
2013-11-12 10:47:00,36.7,21.6,30.22,North,0,10.7,18.3,54,0.00,,,0.04,pywws,2013-11-12 15:47:00,
2013-11-12 10:52:00,36.7,21.2,30.22,NW,315,3.8,6.0,53,0.00,,,0.04,pywws,2013-11-12 15:52:00,
2013-11-12 10:57:00,36.9,21.3,30.22,North,0,7.6,11.4,53,0.00,,,0.04,pywws,2013-11-12 15:57:00,
2013-11-12 11:02:00,37.0,21.1,30.22,North,0,9.8,13.6,52,0.00,,,0.04,pywws,2013-11-12 16:02:00,
2013-11-12 11:07:00,37.0,20.6,30.22,NW,315,8.3,15.2,51,0.00,,,0.04,pywws,2013-11-12 16:07:00,
2013-11-12 11:12:00,37.0,20.6,30.22,NW,315,8.3,15.2,51,0.00,,,0.04,pywws,2013-11-12 16:12:00,
2013-11-12 11:17:00,37.0,19.7,30.22,NW,315,9.2,13.6,49,0.00,,,0.04,pywws,2013-11-12 16:17:00,
2013-11-12 11:31:00,37.0,19.7,30.22,NW,315,9.2,13.6,49,0.00,,,0.04,pywws,2013-11-12 16:31:00,
2013-11-12 11:59:00,37.8,21.7,30.22,North,0,9.2,13.0,52,0.00,,,0.04,pywws,2013-11-12 16:59:00,
2013-11-12 12:05:00,37.9,21.9,30.22,NNE,22,5.4,7.6,52,0.00,,,0.04,pywws,2013-11-12 17:05:00,
2013-11-12 12:10:00,37.9,21.9,30.22,North,0,12.1,15.9,52,0.00,,,0.04,pywws,2013-11-12 17:10:00,
2013-11-12 12:16:00,37.9,21.9,30.21,NE,45,7.6,13.0,52,0.00,,,0.04,pywws,2013-11-12 17:16:00,
2013-11-12 12:21:00,38.1,22.1,30.21,NE,45,6.0,8.3,52,0.00,,,0.04,pywws,2013-11-12 17:21:00,
2013-11-12 12:27:00,38.1,22.5,30.21,NW,315,5.4,6.9,53,0.00,,,0.04,pywws,2013-11-12 17:27:00,
2013-11-12 12:33:00,38.1,22.5,30.22,NW,315,8.3,11.4,53,0.00,,,0.04,pywws,2013-11-12 17:33:00,
2013-11-12 12:38:00,37.9,21.9,30.22,NNW,338,9.2,11.4,52,0.00,,,0.04,pywws,2013-11-12 17:38:00,
2013-11-12 12:44:00,37.8,21.3,30.22,North,0,14.5,23.5,51,0.00,,,0.04,pywws,2013-11-12 17:44:00,
2013-11-12 12:49:00,37.6,21.1,30.22,NW,315,13.0,20.6,51,0.00,,,0.04,pywws,2013-11-12 17:49:00,
2013-11-12 12:55:00,37.4,20.0,30.23,North,0,8.3,15.2,49,0.00,,,0.04,pywws,2013-11-12 17:55:00,
2013-11-12 13:01:00,37.4,18.5,30.22,NW,315,13.0,19.7,46,0.00,,,0.04,pywws,2013-11-12 18:01:00,
2013-11-12 13:06:00,37.2,15.7,30.23,NNW,338,13.6,17.5,41,0.00,,,0.04,pywws,2013-11-12 18:06:00,
2013-11-12 13:12:00,37.2,16.3,30.22,North,0,13.0,16.8,42,0.00,,,0.04,pywws,2013-11-12 18:12:00,
2013-11-12 13:18:00,37.0,16.1,30.23,NW,315,7.6,11.4,42,0.00,,,0.04,pywws,2013-11-12 18:18:00,
2013-11-12 13:24:00,37.0,16.1,30.22,NW,315,14.5,21.2,42,0.00,,,0.04,pywws,2013-11-12 18:24:00,
2013-11-12 13:29:00,36.7,15.8,30.23,North,0,4.5,6.9,42,0.00,,,0.04,pywws,2013-11-12 18:29:00,
2013-11-12 13:35:00,36.5,15.6,30.24,West,270,11.4,16.8,42,0.00,,,0.04,pywws,2013-11-12 18:35:00,
2013-11-12 13:41:00,36.3,15.5,30.24,West,270,9.2,15.2,42,0.00,,,0.04,pywws,2013-11-12 18:41:00,
2013-11-12 13:46:00,36.3,15.5,30.24,North,0,9.2,13.0,42,0.00,,,0.04,pywws,2013-11-12 18:46:00,
2013-11-12 13:52:00,36.1,15.3,30.24,North,0,9.2,10.7,42,0.00,,,0.04,pywws,2013-11-12 18:52:00,
2013-11-12 13:57:00,36.1,15.3,30.24,NW,315,15.2,20.6,42,0.00,,,0.04,pywws,2013-11-12 18:57:00,
2013-11-12 14:03:00,36.1,15.3,30.24,North,0,8.3,11.4,42,0.00,,,0.04,pywws,2013-11-12 19:03:00,
2013-11-12 14:09:00,36.1,15.8,30.25,WNW,292,13.0,17.5,43,0.00,,,0.04,pywws,2013-11-12 19:09:00,
2013-11-12 14:14:00,36.3,16.0,30.25,NE,45,3.8,5.4,43,0.00,,,0.04,pywws,2013-11-12 19:14:00,
2013-11-12 14:20:00,36.5,16.2,30.25,WNW,292,9.2,15.2,43,0.00,,,0.04,pywws,2013-11-12 19:20:00,
2013-11-12 14:25:00,36.5,16.2,30.25,North,0,9.2,13.0,43,0.00,,,0.04,pywws,2013-11-12 19:25:00,
2013-11-12 14:31:00,36.3,16.0,30.25,WNW,292,8.3,11.4,43,0.00,,,0.04,pywws,2013-11-12 19:31:00,
2013-11-12 14:37:00,36.3,16.0,30.25,NW,315,7.6,13.0,43,0.00,,,0.04,pywws,2013-11-12 19:37:00,
2013-11-12 14:42:00,36.1,15.8,30.26,NE,45,10.7,14.5,43,0.00,,,0.04,pywws,2013-11-12 19:42:00,
2013-11-12 14:48:00,36.1,15.8,30.25,North,0,8.3,10.7,43,0.00,,,0.04,pywws,2013-11-12 19:48:00,
2013-11-12 14:53:00,36.3,16.0,30.26,NE,45,4.5,6.9,43,0.00,,,0.04,pywws,2013-11-12 19:53:00,
2013-11-12 14:59:00,36.3,16.0,30.26,North,0,6.0,9.8,43,0.00,,,0.04,pywws,2013-11-12 19:59:00,
2013-11-12 15:05:00,36.5,16.2,30.26,North,0,3.8,7.6,43,0.00,,,0.04,pywws,2013-11-12 20:05:00,
2013-11-12 15:10:00,36.5,16.2,30.26,North,0,8.3,13.0,43,0.00,,,0.04,pywws,2013-11-12 20:10:00,
2013-11-12 15:16:00,36.5,16.2,30.27,NW,315,4.5,6.9,43,0.00,,,0.04,pywws,2013-11-12 20:16:00,
2013-11-12 15:21:00,36.5,16.2,30.27,North,0,3.8,9.2,43,0.00,,,0.04,pywws,2013-11-12 20:21:00,
2013-11-12 15:27:00,36.5,15.6,30.27,NW,315,9.2,13.0,42,0.00,,,0.04,pywws,2013-11-12 20:27:00,
2013-11-12 15:33:00,36.3,16.0,30.28,North,0,6.0,8.3,43,0.00,,,0.04,pywws,2013-11-12 20:33:00,
2013-11-12 15:38:00,36.3,16.0,30.28,NW,315,7.6,9.2,43,0.00,,,0.04,pywws,2013-11-12 20:38:00,
2013-11-12 15:44:00,36.3,16.0,30.28,North,0,5.4,9.2,43,0.00,,,0.04,pywws,2013-11-12 20:44:00,
2013-11-12 15:49:00,36.3,16.0,30.28,NW,315,9.2,12.1,43,0.00,,,0.04,pywws,2013-11-12 20:49:00,
2013-11-12 15:55:00,36.3,16.0,30.28,NW,315,7.6,10.7,43,0.00,,,0.04,pywws,2013-11-12 20:55:00,
2013-11-12 16:01:00,36.3,16.0,30.28,NW,315,11.4,14.5,43,0.00,,,0.04,pywws,2013-11-12 21:01:00,
2013-11-12 16:06:00,36.1,15.3,30.28,North,0,10.7,15.2,42,0.00,,,0.04,pywws,2013-11-12 21:06:00,
2013-11-12 16:12:00,36.1,15.3,30.28,NE,45,9.8,13.6,42,0.00,,,0.04,pywws,2013-11-12 21:12:00,
2013-11-12 16:18:00,36.0,15.1,30.29,NW,315,9.8,13.6,42,0.00,,,0.04,pywws,2013-11-12 21:18:00,
2013-11-12 16:24:00,36.0,15.1,30.28,North,0,9.2,12.1,42,0.00,,,0.04,pywws,2013-11-12 21:24:00,
2013-11-12 16:29:00,36.0,15.1,30.29,North,0,5.4,7.6,42,0.00,,,0.04,pywws,2013-11-12 21:29:00,
2013-11-12 16:35:00,35.8,15.0,30.29,NW,315,4.5,5.4,42,0.00,,,0.04,pywws,2013-11-12 21:35:00,
2013-11-12 16:41:00,35.8,15.0,30.29,North,0,9.2,13.6,42,0.00,,,0.04,pywws,2013-11-12 21:41:00,
2013-11-12 16:46:00,35.8,15.0,30.29,NW,315,6.0,9.2,42,0.00,,,0.04,pywws,2013-11-12 21:46:00,
2013-11-12 16:52:00,35.6,14.8,30.29,NNW,338,5.4,8.3,42,0.00,,,0.04,pywws,2013-11-12 21:52:00,
2013-11-12 16:57:00,35.6,14.8,30.29,North,0,9.2,12.1,42,0.00,,,0.04,pywws,2013-11-12 21:57:00,
2013-11-12 17:03:00,35.6,14.8,30.29,NW,315,10.7,16.8,42,0.00,,,0.04,pywws,2013-11-12 22:03:00,
2013-11-12 17:09:00,35.6,14.8,30.29,North,0,9.8,13.0,42,0.00,,,0.04,pywws,2013-11-12 22:09:00,
2013-11-12 17:14:00,35.4,15.2,30.29,NW,315,6.0,9.2,43,0.00,,,0.04,pywws,2013-11-12 22:14:00,
2013-11-12 17:20:00,35.4,15.2,30.30,West,270,5.4,8.3,43,0.00,,,0.04,pywws,2013-11-12 22:20:00,
2013-11-12 17:25:00,35.4,15.7,30.30,North,0,10.7,15.2,44,0.00,,,0.04,pywws,2013-11-12 22:25:00,
2013-11-12 17:31:00,35.4,15.2,30.29,North,0,13.0,19.7,43,0.00,,,0.04,pywws,2013-11-12 22:31:00,
2013-11-12 17:37:00,35.4,15.2,30.29,North,0,12.1,19.7,43,0.00,,,0.04,pywws,2013-11-12 22:37:00,
2013-11-12 17:42:00,35.4,15.2,30.30,North,0,9.8,13.0,43,0.00,,,0.04,pywws,2013-11-12 22:42:00,
2013-11-12 17:48:00,35.2,15.0,30.31,North,0,11.4,14.5,43,0.00,,,0.04,pywws,2013-11-12 22:48:00,
2013-11-12 17:53:00,35.2,15.0,30.31,North,0,7.6,9.2,43,0.00,,,0.04,pywws,2013-11-12 22:53:00,
2013-11-12 17:59:00,35.1,14.8,30.31,NW,315,8.3,13.6,43,0.00,,,0.04,pywws,2013-11-12 22:59:00,
2013-11-12 18:05:00,34.9,14.7,30.32,West,270,9.8,16.8,43,0.00,,,0.04,pywws,2013-11-12 23:05:00,
2013-11-12 18:10:00,34.7,14.5,30.32,NW,315,9.2,14.5,43,0.00,,,0.04,pywws,2013-11-12 23:10:00,
2013-11-12 18:16:00,34.7,15.0,30.32,NNW,338,9.8,14.5,44,0.00,,,0.04,pywws,2013-11-12 23:16:00,
2013-11-12 18:21:00,34.5,14.9,30.32,NNE,22,8.3,12.1,44,0.00,,,0.04,pywws,2013-11-12 23:21:00,
2013-11-12 18:27:00,34.3,14.7,30.32,NNW,338,9.8,16.8,44,0.00,,,0.04,pywws,2013-11-12 23:27:00,
2013-11-12 18:33:00,34.2,14.6,30.32,NW,315,5.4,10.7,44,0.00,,,0.04,pywws,2013-11-12 23:33:00,
2013-11-12 18:38:00,34.2,14.6,30.33,NW,315,13.6,17.5,44,0.00,,,0.04,pywws,2013-11-12 23:38:00,
2013-11-12 18:44:00,34.0,14.4,30.33,North,0,7.6,9.8,44,0.00,,,0.04,pywws,2013-11-12 23:44:00,
2013-11-12 18:49:00,33.8,14.7,30.34,North,0,7.6,13.6,45,0.00,,,0.04,pywws,2013-11-12 23:49:00,
2013-11-12 18:55:00,33.6,15.1,30.34,North,0,6.0,9.2,46,0.00,,,0.04,pywws,2013-11-12 23:55:00,
2013-11-12 19:01:00,33.6,15.1,30.34,North,0,9.8,14.5,46,0.00,,,0.04,pywws,2013-11-13 00:01:00,
2013-11-12 19:06:00,33.4,14.9,30.34,North,0,6.0,9.2,46,0.00,,,0.04,pywws,2013-11-13 00:06:00,
2013-11-12 19:12:00,33.3,15.2,30.34,WNW,292,5.4,8.3,47,0.00,,,0.04,pywws,2013-11-13 00:12:00,
2013-11-12 19:18:00,32.9,14.9,30.34,NNW,338,6.9,9.2,47,0.00,,,0.04,pywws,2013-11-13 00:18:00,
2013-11-12 19:24:00,32.9,14.9,30.34,NW,315,4.5,6.0,47,0.00,,,0.04,pywws,2013-11-13 00:24:00,
2013-11-12 19:29:00,32.7,14.7,30.34,North,0,8.3,13.6,47,0.00,,,0.04,pywws,2013-11-13 00:29:00,
2013-11-12 19:35:00,32.5,14.6,30.34,North,0,4.5,9.2,47,0.00,,,0.04,pywws,2013-11-13 00:35:00,
2013-11-12 19:41:00,32.5,14.6,30.34,North,0,3.8,13.0,47,0.00,,,0.04,pywws,2013-11-13 00:41:00,
2013-11-12 19:46:00,32.4,14.4,30.34,North,0,3.1,4.5,47,0.00,,,0.04,pywws,2013-11-13 00:46:00,
2013-11-12 19:52:00,32.2,14.7,30.34,NW,315,1.6,3.8,48,0.00,,,0.04,pywws,2013-11-13 00:52:00,
2013-11-12 19:57:00,32.0,14.6,30.34,North,0,3.1,4.5,48,0.00,,,0.04,pywws,2013-11-13 00:57:00,
2013-11-12 20:03:00,32.0,14.6,30.34,NW,315,4.5,6.9,48,0.00,,,0.04,pywws,2013-11-13 01:03:00,
2013-11-12 20:09:00,31.8,15.3,30.35,NW,315,9.2,10.7,50,0.00,,,0.04,pywws,2013-11-13 01:09:00,
2013-11-12 20:14:00,32.0,15.0,30.35,NW,315,3.8,5.4,49,0.00,,,0.04,pywws,2013-11-13 01:14:00,
2013-11-12 20:20:00,31.8,15.3,30.35,NW,315,3.1,4.5,50,0.00,,,0.04,pywws,2013-11-13 01:20:00,
2013-11-12 20:25:00,31.8,15.8,30.35,NW,315,1.6,3.1,51,0.00,,,0.04,pywws,2013-11-13 01:25:00,
2013-11-12 20:31:00,31.6,15.6,30.35,West,270,3.1,5.4,51,0.00,,,0.04,pywws,2013-11-13 01:31:00,
2013-11-12 20:37:00,31.5,15.9,30.35,North,0,3.1,6.9,52,0.00,,,0.04,pywws,2013-11-13 01:37:00,
2013-11-12 20:42:00,31.5,16.3,30.36,North,0,4.5,6.9,53,0.00,,,0.04,pywws,2013-11-13 01:42:00,
2013-11-12 20:48:00,31.3,16.6,30.35,NNW,338,5.4,9.8,54,0.00,,,0.04,pywws,2013-11-13 01:48:00,
2013-11-12 20:53:00,31.3,16.6,30.36,NW,315,6.9,9.8,54,0.00,,,0.04,pywws,2013-11-13 01:53:00,
2013-11-12 20:59:00,31.5,16.8,30.36,NNW,338,1.6,3.1,54,0.00,,,0.04,pywws,2013-11-13 01:59:00,
2013-11-12 21:05:00,31.5,16.8,30.36,NNW,338,1.6,3.1,54,0.00,,,0.04,pywws,2013-11-13 02:05:00,
2013-11-12 21:10:00,31.3,16.6,30.36,NE,45,3.1,4.5,54,0.00,,,0.04,pywws,2013-11-13 02:10:00,
2013-11-12 21:16:00,31.3,16.6,30.35,NNW,338,3.1,4.5,54,0.00,,,0.04,pywws,2013-11-13 02:16:00,
2013-11-12 21:21:00,31.3,16.6,30.36,NW,315,3.8,5.4,54,0.00,,,0.04,pywws,2013-11-13 02:21:00,
2013-11-12 21:27:00,31.3,16.6,30.36,NE,45,4.5,6.0,54,0.00,,,0.04,pywws,2013-11-13 02:27:00,
2013-11-12 21:33:00,31.1,16.4,30.36,North,0,3.1,4.5,54,0.00,,,0.04,pywws,2013-11-13 02:33:00,
2013-11-12 21:38:00,31.1,16.4,30.36,North,0,6.0,7.6,54,0.00,,,0.04,pywws,2013-11-13 02:38:00,
2013-11-12 21:44:00,31.1,16.4,30.35,NE,45,6.0,9.8,54,0.00,,,0.04,pywws,2013-11-13 02:44:00,
2013-11-12 21:49:00,31.1,16.4,30.35,NW,315,6.0,9.8,54,0.00,,,0.04,pywws,2013-11-13 02:49:00,
2013-11-12 21:55:00,31.1,16.4,30.35,NW,315,2.2,3.8,54,0.00,,,0.04,pywws,2013-11-13 02:55:00,
2013-11-12 22:00:00,30.9,16.3,30.36,NW,315,3.8,6.0,54,0.00,,,0.04,pywws,2013-11-13 03:00:00,
2013-11-12 22:05:00,30.7,16.1,30.36,North,0,2.2,3.1,54,0.00,,,0.04,pywws,2013-11-13 03:05:00,
2013-11-12 22:11:00,30.6,15.9,30.35,North,0,3.8,5.4,54,0.00,,,0.04,pywws,2013-11-13 03:11:00,
2013-11-12 22:17:00,30.4,15.7,30.35,North,0,6.9,9.8,54,0.00,,,0.04,pywws,2013-11-13 03:17:00,
2013-11-12 22:22:00,30.6,16.3,30.35,North,0,4.5,6.9,55,0.00,,,0.04,pywws,2013-11-13 03:22:00,
2013-11-12 22:28:00,30.6,16.3,30.35,North,0,7.6,9.8,55,0.00,,,0.04,pywws,2013-11-13 03:28:00,
2013-11-12 22:33:00,30.6,16.3,30.35,North,0,7.6,12.1,55,0.00,,,0.04,pywws,2013-11-13 03:33:00,
2013-11-12 22:39:00,30.6,16.3,30.35,North,0,4.5,7.6,55,0.00,,,0.04,pywws,2013-11-13 03:39:00,
2013-11-12 22:45:00,30.4,16.6,30.35,North,0,3.8,6.0,56,0.00,,,0.04,pywws,2013-11-13 03:45:00,
2013-11-12 22:50:00,30.4,16.6,30.36,WNW,292,3.1,3.8,56,0.00,,,0.04,pywws,2013-11-13 03:50:00,
2013-11-12 22:56:00,30.2,16.4,30.36,North,0,7.6,12.1,56,0.00,,,0.04,pywws,2013-11-13 03:56:00,
2013-11-12 23:01:00,30.2,16.4,30.36,North,0,6.0,7.6,56,0.00,,,0.04,pywws,2013-11-13 04:01:00,
2013-11-12 23:07:00,30.2,16.4,30.36,West,270,4.5,6.9,56,0.00,,,0.04,pywws,2013-11-13 04:07:00,
2013-11-12 23:13:00,30.2,16.4,30.36,NW,315,5.4,8.3,56,0.00,,,0.04,pywws,2013-11-13 04:13:00,
2013-11-12 23:18:00,30.0,16.7,30.36,WNW,292,4.5,7.6,57,0.00,,,0.04,pywws,2013-11-13 04:18:00,
2013-11-12 23:24:00,30.0,16.7,30.36,West,270,3.8,5.4,57,0.00,,,0.04,pywws,2013-11-13 04:24:00,
2013-11-12 23:29:00,30.0,16.7,30.36,NW,315,6.0,8.3,57,0.00,,,0.04,pywws,2013-11-13 04:29:00,
2013-11-12 23:35:00,29.8,16.9,30.35,West,270,7.6,9.8,58,0.00,,,0.04,pywws,2013-11-13 04:35:00,
2013-11-12 23:41:00,30.0,17.1,30.36,NW,315,5.4,6.9,58,0.00,,,0.04,pywws,2013-11-13 04:41:00,
2013-11-12 23:46:00,30.0,17.1,30.36,NW,315,3.8,6.0,58,0.00,,,0.04,pywws,2013-11-13 04:46:00,
2013-11-12 23:52:00,30.0,16.7,30.36,North,0,6.0,9.2,57,0.00,,,0.04,pywws,2013-11-13 04:52:00,
2013-11-12 23:57:00,29.8,16.5,30.36,NW,315,9.2,11.4,57,0.00,,,0.04,pywws,2013-11-13 04:57:00,